sensor_id;sensor_type;location;lat;lon;timestamp;pressure;altitude;pressure_sealevel;temperature;humidity
14383;BME280;7275;50.328;8.720;2022-09-02T00:01:15;99882.72;;;22.12;32.15
14383;BME280;7275;50.328;8.720;2022-09-02T00:03:43;99881.00;;;22.11;32.11
14383;BME280;7275;50.328;8.720;2022-09-02T00:06:10;99876.59;;;22.10;32.12
14383;BME280;7275;50.328;8.720;2022-09-02T00:08:39;99880.28;;;22.09;32.31
14383;BME280;7275;50.328;8.720;2022-09-02T00:11:12;99874.16;;;22.07;32.35
14383;BME280;7275;50.328;8.720;2022-09-02T00:13:41;99868.88;;;22.05;32.49
14383;BME280;7275;50.328;8.720;2022-09-02T00:16:09;99864.50;;;22.04;32.36
14383;BME280;7275;50.328;8.720;2022-09-02T00:18:37;99873.44;;;22.05;32.38
14383;BME280;7275;50.328;8.720;2022-09-02T00:21:10;99875.13;;;22.06;32.46
14383;BME280;7275;50.328;8.720;2022-09-02T00:23:40;99859.84;;;22.06;32.67
14383;BME280;7275;50.328;8.720;2022-09-02T00:26:10;99867.78;;;22.08;32.69
14383;BME280;7275;50.328;8.720;2022-09-02T00:28:38;99869.50;;;22.09;32.37
14383;BME280;7275;50.328;8.720;2022-09-02T00:31:14;99867.56;;;22.11;32.47
14383;BME280;7275;50.328;8.720;2022-09-02T00:33:42;99863.72;;;22.13;32.64
14383;BME280;7275;50.328;8.720;2022-09-02T00:36:10;99867.16;;;22.15;32.59
14383;BME280;7275;50.328;8.720;2022-09-02T00:38:38;99854.53;;;22.16;32.74
14383;BME280;7275;50.328;8.720;2022-09-02T00:41:08;99857.38;;;22.14;32.68
14383;BME280;7275;50.328;8.720;2022-09-02T00:43:41;99860.94;;;22.15;32.61
14383;BME280;7275;50.328;8.720;2022-09-02T00:46:11;99850.03;;;22.16;32.94
14383;BME280;7275;50.328;8.720;2022-09-02T00:48:42;99852.56;;;22.18;32.79
14383;BME280;7275;50.328;8.720;2022-09-02T00:51:11;99854.16;;;22.20;32.69
14383;BME280;7275;50.328;8.720;2022-09-02T00:53:41;99853.19;;;22.21;32.65
14383;BME280;7275;50.328;8.720;2022-09-02T00:56:13;99854.16;;;22.20;32.78
14383;BME280;7275;50.328;8.720;2022-09-02T00:58:42;99848.66;;;22.22;32.80
14383;BME280;7275;50.328;8.720;2022-09-02T01:01:10;99846.09;;;22.20;32.95
14383;BME280;7275;50.328;8.720;2022-09-02T01:03:39;99851.47;;;22.20;32.87
14383;BME280;7275;50.328;8.720;2022-09-02T01:06:07;99847.91;;;22.20;32.83
14383;BME280;7275;50.328;8.720;2022-09-02T01:08:37;99846.22;;;22.19;33.05
14383;BME280;7275;50.328;8.720;2022-09-02T01:11:05;99843.53;;;22.19;33.00
14383;BME280;7275;50.328;8.720;2022-09-02T01:13:36;99844.50;;;22.18;33.07
14383;BME280;7275;50.328;8.720;2022-09-02T01:16:11;99852.72;;;22.16;33.07
14383;BME280;7275;50.328;8.720;2022-09-02T01:18:41;99842.06;;;22.15;33.06
14383;BME280;7275;50.328;8.720;2022-09-02T01:21:10;99848.44;;;22.14;33.10
14383;BME280;7275;50.328;8.720;2022-09-02T01:23:40;99845.16;;;22.10;33.13
14383;BME280;7275;50.328;8.720;2022-09-02T01:26:08;99845.28;;;22.09;33.41
14383;BME280;7275;50.328;8.720;2022-09-02T01:28:36;99846.25;;;22.08;33.59
14383;BME280;7275;50.328;8.720;2022-09-02T01:31:04;99844.41;;;22.08;33.13
14383;BME280;7275;50.328;8.720;2022-09-02T01:33:32;99846.25;;;22.08;33.57
14383;BME280;7275;50.328;8.720;2022-09-02T01:36:00;99838.16;;;22.08;33.57
14383;BME280;7275;50.328;8.720;2022-09-02T01:38:30;99842.59;;;22.09;33.38
14383;BME280;7275;50.328;8.720;2022-09-02T01:40:59;99842.44;;;22.10;33.41
14383;BME280;7275;50.328;8.720;2022-09-02T01:43:28;99836.19;;;22.10;33.39
14383;BME280;7275;50.328;8.720;2022-09-02T01:45:57;99838.03;;;22.09;33.66
14383;BME280;7275;50.328;8.720;2022-09-02T01:48:24;99840.63;;;22.11;33.57
14383;BME280;7275;50.328;8.720;2022-09-02T01:50:55;99836.94;;;22.12;33.64
14383;BME280;7275;50.328;8.720;2022-09-02T01:53:23;99843.03;;;22.14;33.63
14383;BME280;7275;50.328;8.720;2022-09-02T01:55:50;99832.13;;;22.15;33.67
14383;BME280;7275;50.328;8.720;2022-09-02T01:58:19;99825.06;;;22.14;33.59
14383;BME280;7275;50.328;8.720;2022-09-02T02:00:47;99834.81;;;22.15;33.64
14383;BME280;7275;50.328;8.720;2022-09-02T02:03:15;99832.13;;;22.15;33.90
14383;BME280;7275;50.328;8.720;2022-09-02T02:05:43;99837.53;;;22.15;33.90
14383;BME280;7275;50.328;8.720;2022-09-02T02:08:11;99833.72;;;22.18;33.87
14383;BME280;7275;50.328;8.720;2022-09-02T02:10:39;99839.97;;;22.18;33.67
14383;BME280;7275;50.328;8.720;2022-09-02T02:13:08;99836.41;;;22.18;34.05
14383;BME280;7275;50.328;8.720;2022-09-02T02:15:37;99832.75;;;22.19;33.76
14383;BME280;7275;50.328;8.720;2022-09-02T02:18:05;99832.75;;;22.19;34.01
14383;BME280;7275;50.328;8.720;2022-09-02T02:20:33;99835.44;;;22.19;34.01
14383;BME280;7275;50.328;8.720;2022-09-02T02:23:01;99833.72;;;22.18;33.92
14383;BME280;7275;50.328;8.720;2022-09-02T02:25:31;99837.41;;;22.17;33.95
14383;BME280;7275;50.328;8.720;2022-09-02T02:27:58;99837.53;;;22.15;33.82
14383;BME280;7275;50.328;8.720;2022-09-02T02:30:28;99832.13;;;22.15;34.16
14383;BME280;7275;50.328;8.720;2022-09-02T02:32:56;99831.31;;;22.15;33.96
14383;BME280;7275;50.328;8.720;2022-09-02T02:35:24;99822.38;;;22.14;34.21
14383;BME280;7275;50.328;8.720;2022-09-02T02:37:52;99828.00;;;22.11;34.21
14383;BME280;7275;50.328;8.720;2022-09-02T02:40:22;99830.81;;;22.10;34.08
14383;BME280;7275;50.328;8.720;2022-09-02T02:42:51;99833.78;;;22.07;34.23
14383;BME280;7275;50.328;8.720;2022-09-02T02:45:20;99822.38;;;22.03;34.08
14383;BME280;7275;50.328;8.720;2022-09-02T02:47:47;99824.22;;;22.03;34.37
14383;BME280;7275;50.328;8.720;2022-09-02T02:50:19;99833.44;;;22.00;34.35
14383;BME280;7275;50.328;8.720;2022-09-02T02:52:48;99834.66;;;21.96;34.42
14383;BME280;7275;50.328;8.720;2022-09-02T02:55:16;99826.69;;;21.95;34.17
14383;BME280;7275;50.328;8.720;2022-09-02T02:57:44;99830.50;;;21.92;34.59
14383;BME280;7275;50.328;8.720;2022-09-02T03:00:15;99828.78;;;21.91;34.34
14383;BME280;7275;50.328;8.720;2022-09-02T03:02:43;99832.47;;;21.90;34.44
14383;BME280;7275;50.328;8.720;2022-09-02T03:05:12;99825.50;;;21.88;34.75
14383;BME280;7275;50.328;8.720;2022-09-02T03:07:41;99830.88;;;21.88;34.61
14383;BME280;7275;50.328;8.720;2022-09-02T03:10:10;99822.06;;;21.86;34.46
14383;BME280;7275;50.328;8.720;2022-09-02T03:12:39;99821.34;;;21.84;34.77
14383;BME280;7275;50.328;8.720;2022-09-02T03:15:08;99821.34;;;21.84;34.65
14383;BME280;7275;50.328;8.720;2022-09-02T03:17:36;99821.44;;;21.82;34.65
14383;BME280;7275;50.328;8.720;2022-09-02T03:20:05;99818.00;;;21.80;34.80
14383;BME280;7275;50.328;8.720;2022-09-02T03:22:33;99823.88;;;21.74;34.68
14383;BME280;7275;50.328;8.720;2022-09-02T03:25:07;99820.47;;;21.72;35.03
14383;BME280;7275;50.328;8.720;2022-09-02T03:27:36;99820.72;;;21.69;34.85
14383;BME280;7275;50.328;8.720;2022-09-02T03:30:06;99817.31;;;21.67;34.93
14383;BME280;7275;50.328;8.720;2022-09-02T03:32:35;99817.53;;;21.64;34.91
14383;BME280;7275;50.328;8.720;2022-09-02T03:35:04;99814.25;;;21.61;35.13
14383;BME280;7275;50.328;8.720;2022-09-02T03:37:33;99808.22;;;21.57;35.19
14383;BME280;7275;50.328;8.720;2022-09-02T03:40:02;99817.31;;;21.56;35.06
14383;BME280;7275;50.328;8.720;2022-09-02T03:42:31;99817.44;;;21.55;35.17
14383;BME280;7275;50.328;8.720;2022-09-02T03:44:59;99817.53;;;21.53;35.22
14383;BME280;7275;50.328;8.720;2022-09-02T03:47:27;99813.28;;;21.51;35.22
14383;BME280;7275;50.328;8.720;2022-09-02T03:49:56;99810.47;;;21.52;35.13
14383;BME280;7275;50.328;8.720;2022-09-02T03:52:24;99810.59;;;21.51;35.07
14383;BME280;7275;50.328;8.720;2022-09-02T03:54:51;99811.56;;;21.49;35.06
14383;BME280;7275;50.328;8.720;2022-09-02T03:57:19;99800.19;;;21.46;35.25
14383;BME280;7275;50.328;8.720;2022-09-02T03:59:53;99801.28;;;21.43;35.31
14383;BME280;7275;50.328;8.720;2022-09-02T04:02:21;99800.69;;;21.40;35.47
14383;BME280;7275;50.328;8.720;2022-09-02T04:04:49;99803.59;;;21.37;35.41
14383;BME280;7275;50.328;8.720;2022-09-02T04:07:17;99815.34;;;21.36;35.39
14383;BME280;7275;50.328;8.720;2022-09-02T04:09:46;99799.44;;;21.33;35.65
14383;BME280;7275;50.328;8.720;2022-09-02T04:12:13;99806.78;;;21.31;35.46
14383;BME280;7275;50.328;8.720;2022-09-02T04:14:41;99799.81;;;21.28;35.70
14383;BME280;7275;50.328;8.720;2022-09-02T04:17:10;99803.59;;;21.26;35.53
14383;BME280;7275;50.328;8.720;2022-09-02T04:19:37;99801.16;;;21.23;35.58
14383;BME280;7275;50.328;8.720;2022-09-02T04:22:05;99801.16;;;21.23;35.63
14383;BME280;7275;50.328;8.720;2022-09-02T04:24:33;99801.41;;;21.20;35.63
14383;BME280;7275;50.328;8.720;2022-09-02T04:27:01;99793.47;;;21.18;35.68
14383;BME280;7275;50.328;8.720;2022-09-02T04:29:29;99804.56;;;21.14;35.97
14383;BME280;7275;50.328;8.720;2022-09-02T04:31:58;99807.41;;;21.12;35.86
14383;BME280;7275;50.328;8.720;2022-09-02T04:34:27;99814.59;;;21.12;35.85
14383;BME280;7275;50.328;8.720;2022-09-02T04:36:54;99806.66;;;21.10;35.96
14383;BME280;7275;50.328;8.720;2022-09-02T04:39:22;99806.88;;;21.07;35.98
14383;BME280;7275;50.328;8.720;2022-09-02T04:41:50;99807.16;;;21.04;35.96
14383;BME280;7275;50.328;8.720;2022-09-02T04:44:19;99809.94;;;21.03;36.06
14383;BME280;7275;50.328;8.720;2022-09-02T04:46:46;99810.78;;;21.03;36.14
14383;BME280;7275;50.328;8.720;2022-09-02T04:49:15;99813.47;;;21.03;36.07
14383;BME280;7275;50.328;8.720;2022-09-02T04:51:45;99813.47;;;21.03;36.16
14383;BME280;7275;50.328;8.720;2022-09-02T04:54:13;99817.91;;;21.04;36.20
14383;BME280;7275;50.328;8.720;2022-09-02T04:56:41;99808.75;;;21.07;36.12
14383;BME280;7275;50.328;8.720;2022-09-02T04:59:08;99813.13;;;21.08;36.34
14383;BME280;7275;50.328;8.720;2022-09-02T05:01:36;99813.72;;;21.11;36.18
14383;BME280;7275;50.328;8.720;2022-09-02T05:04:05;99818.75;;;21.16;36.33
14383;BME280;7275;50.328;8.720;2022-09-02T05:06:35;99814.09;;;21.18;36.28
14383;BME280;7275;50.328;8.720;2022-09-02T05:09:11;99820.34;;;21.18;36.21
14383;BME280;7275;50.328;8.720;2022-09-02T05:11:39;99808.50;;;21.21;36.23
14383;BME280;7275;50.328;8.720;2022-09-02T05:14:06;99814.63;;;21.23;36.42
14383;BME280;7275;50.328;8.720;2022-09-02T05:16:37;99816.94;;;21.27;36.52
14383;BME280;7275;50.328;8.720;2022-09-02T05:19:06;99820.09;;;21.32;36.35
14383;BME280;7275;50.328;8.720;2022-09-02T05:21:38;99811.44;;;21.40;36.30
14383;BME280;7275;50.328;8.720;2022-09-02T05:24:06;99817.06;;;21.48;36.29
14383;BME280;7275;50.328;8.720;2022-09-02T05:26:35;99821.81;;;21.56;36.36
14383;BME280;7275;50.328;8.720;2022-09-02T05:29:03;99816.81;;;21.62;36.27
14383;BME280;7275;50.328;8.720;2022-09-02T05:31:32;99818.13;;;21.68;36.34
14383;BME280;7275;50.328;8.720;2022-09-02T05:33:59;99821.19;;;21.74;36.27
14383;BME280;7275;50.328;8.720;2022-09-02T05:36:27;99819.00;;;21.79;36.22
14383;BME280;7275;50.328;8.720;2022-09-02T05:38:56;99824.03;;;21.84;36.47
14383;BME280;7275;50.328;8.720;2022-09-02T05:41:24;99820.84;;;21.90;36.64
14383;BME280;7275;50.328;8.720;2022-09-02T05:43:56;99814.69;;;21.99;36.50
14383;BME280;7275;50.328;8.720;2022-09-02T05:46:27;99822.00;;;22.08;36.35
14383;BME280;7275;50.328;8.720;2022-09-02T05:48:57;99815.16;;;22.15;36.38
14383;BME280;7275;50.328;8.720;2022-09-02T05:51:39;99815.50;;;22.21;36.61
14383;BME280;7275;50.328;8.720;2022-09-02T05:54:08;99807.63;;;22.30;36.41
14383;BME280;7275;50.328;8.720;2022-09-02T05:56:37;99806.97;;;22.37;36.89
14383;BME280;7275;50.328;8.720;2022-09-02T05:59:12;99814.16;;;22.48;36.70
14383;BME280;7275;50.328;8.720;2022-09-02T06:01:40;99816.09;;;22.57;36.81
14383;BME280;7275;50.328;8.720;2022-09-02T06:04:08;99819.00;;;22.65;36.82
14383;BME280;7275;50.328;8.720;2022-09-02T06:06:36;99822.16;;;22.70;36.67
14383;BME280;7275;50.328;8.720;2022-09-02T06:09:04;99810.88;;;22.76;36.97
14383;BME280;7275;50.328;8.720;2022-09-02T06:11:34;99815.59;;;22.83;37.03
14383;BME280;7275;50.328;8.720;2022-09-02T06:14:05;99814.94;;;22.91;37.01
14383;BME280;7275;50.328;8.720;2022-09-02T06:16:34;99823.19;;;22.99;36.98
14383;BME280;7275;50.328;8.720;2022-09-02T06:19:02;99817.88;;;23.09;37.17
14383;BME280;7275;50.328;8.720;2022-09-02T06:21:31;99811.66;;;23.18;36.95
14383;BME280;7275;50.328;8.720;2022-09-02T06:23:59;99810.00;;;23.26;36.56
14383;BME280;7275;50.328;8.720;2022-09-02T06:26:26;99809.00;;;23.38;36.47
14383;BME280;7275;50.328;8.720;2022-09-02T06:28:54;99807.75;;;23.52;36.22
14383;BME280;7275;50.328;8.720;2022-09-02T06:31:22;99814.66;;;23.65;36.12
14383;BME280;7275;50.328;8.720;2022-09-02T06:33:53;99814.25;;;23.79;36.06
14383;BME280;7275;50.328;8.720;2022-09-02T06:36:22;99809.72;;;23.90;35.89
14383;BME280;7275;50.328;8.720;2022-09-02T06:38:56;99812.31;;;24.01;35.52
14383;BME280;7275;50.328;8.720;2022-09-02T06:41:26;99806.94;;;24.10;35.66
14383;BME280;7275;50.328;8.720;2022-09-02T06:43:55;99805.97;;;24.21;35.43
14383;BME280;7275;50.328;8.720;2022-09-02T06:46:27;99815.66;;;24.33;35.39
14383;BME280;7275;50.328;8.720;2022-09-02T06:48:56;99806.53;;;24.43;35.06
14383;BME280;7275;50.328;8.720;2022-09-02T06:51:26;99813.81;;;24.52;35.22
14383;BME280;7275;50.328;8.720;2022-09-02T06:53:54;99812.81;;;24.63;34.68
14383;BME280;7275;50.328;8.720;2022-09-02T06:56:22;99815.50;;;24.73;34.83
14383;BME280;7275;50.328;8.720;2022-09-02T06:58:50;99812.97;;;24.81;34.62
14383;BME280;7275;50.328;8.720;2022-09-02T07:01:18;99817.50;;;24.90;34.53
14383;BME280;7275;50.328;8.720;2022-09-02T07:03:46;99812.22;;;24.98;34.57
14383;BME280;7275;50.328;8.720;2022-09-02T07:06:34;99813.06;;;25.08;34.19
14383;BME280;7275;50.328;8.720;2022-09-02T07:09:03;99807.47;;;25.19;34.16
14383;BME280;7275;50.328;8.720;2022-09-02T07:11:31;99809.56;;;25.34;34.10
14383;BME280;7275;50.328;8.720;2022-09-02T07:13:58;99801.84;;;25.49;33.95
14383;BME280;7275;50.328;8.720;2022-09-02T07:16:28;99805.75;;;25.64;33.92
14383;BME280;7275;50.328;8.720;2022-09-02T07:18:56;99802.69;;;25.77;33.53
14383;BME280;7275;50.328;8.720;2022-09-02T07:21:26;99799.94;;;25.86;33.46
14383;BME280;7275;50.328;8.720;2022-09-02T07:23:56;99798.19;;;25.95;33.39
14383;BME280;7275;50.328;8.720;2022-09-02T07:26:25;99804.84;;;26.00;33.26
14383;BME280;7275;50.328;8.720;2022-09-02T07:28:53;99800.66;;;26.06;33.03
14383;BME280;7275;50.328;8.720;2022-09-02T07:31:21;99791.13;;;26.11;33.05
14383;BME280;7275;50.328;8.720;2022-09-02T07:33:49;99793.22;;;26.18;33.08
14383;BME280;7275;50.328;8.720;2022-09-02T07:36:17;99796.16;;;26.24;32.92
14383;BME280;7275;50.328;8.720;2022-09-02T07:38:46;99792.84;;;26.30;32.76
14383;BME280;7275;50.328;8.720;2022-09-02T07:41:15;99789.50;;;26.36;32.71
14383;BME280;7275;50.328;8.720;2022-09-02T07:43:43;99798.16;;;26.40;32.71
14383;BME280;7275;50.328;8.720;2022-09-02T07:46:17;99791.44;;;26.44;32.80
14383;BME280;7275;50.328;8.720;2022-09-02T07:48:45;99789.41;;;26.46;32.74
14383;BME280;7275;50.328;8.720;2022-09-02T07:51:15;99793.69;;;26.48;32.57
14383;BME280;7275;50.328;8.720;2022-09-02T07:53:43;99798.81;;;26.51;32.37
14383;BME280;7275;50.328;8.720;2022-09-02T07:56:12;99802.34;;;26.52;32.21
14383;BME280;7275;50.328;8.720;2022-09-02T07:58:42;99798.41;;;26.46;32.25
14383;BME280;7275;50.328;8.720;2022-09-02T08:01:10;99800.25;;;26.46;32.14
14383;BME280;7275;50.328;8.720;2022-09-02T08:03:40;99793.16;;;26.45;32.22
14383;BME280;7275;50.328;8.720;2022-09-02T08:06:08;99785.13;;;26.43;32.17
14383;BME280;7275;50.328;8.720;2022-09-02T08:08:36;99787.84;;;26.43;32.17
14383;BME280;7275;50.328;8.720;2022-09-02T08:11:05;99791.25;;;26.45;32.11
14383;BME280;7275;50.328;8.720;2022-09-02T08:13:33;99794.53;;;26.49;32.25
14383;BME280;7275;50.328;8.720;2022-09-02T08:16:02;99795.59;;;26.56;32.14
14383;BME280;7275;50.328;8.720;2022-09-02T08:18:30;99788.25;;;26.66;32.21
14383;BME280;7275;50.328;8.720;2022-09-02T08:20:58;99788.47;;;26.72;31.93
14383;BME280;7275;50.328;8.720;2022-09-02T08:23:27;99788.41;;;26.82;32.13
14383;BME280;7275;50.328;8.720;2022-09-02T08:26:03;99785.28;;;26.95;31.90
14383;BME280;7275;50.328;8.720;2022-09-02T08:28:31;99785.84;;;27.06;31.99
14383;BME280;7275;50.328;8.720;2022-09-02T08:31:05;99788.00;;;27.20;31.98
14383;BME280;7275;50.328;8.720;2022-09-02T08:33:33;99779.97;;;27.36;31.82
14383;BME280;7275;50.328;8.720;2022-09-02T08:36:03;99783.66;;;27.61;31.45
14383;BME280;7275;50.328;8.720;2022-09-02T08:38:31;99771.63;;;28.13;30.87
14383;BME280;7275;50.328;8.720;2022-09-02T08:40:58;99762.50;;;28.87;30.38
14383;BME280;7275;50.328;8.720;2022-09-02T08:43:30;99763.63;;;29.79;29.16
14383;BME280;7275;50.328;8.720;2022-09-02T08:46:07;99759.19;;;30.77;28.67
14383;BME280;7275;50.328;8.720;2022-09-02T08:48:39;99764.06;;;31.56;28.05
14383;BME280;7275;50.328;8.720;2022-09-02T08:51:16;99757.47;;;32.37;27.20
14383;BME280;7275;50.328;8.720;2022-09-02T08:53:49;99748.47;;;33.06;27.11
14383;BME280;7275;50.328;8.720;2022-09-02T08:56:18;99756.69;;;33.74;26.09
14383;BME280;7275;50.328;8.720;2022-09-02T08:58:49;99750.56;;;34.26;25.86
14383;BME280;7275;50.328;8.720;2022-09-02T09:01:33;99743.44;;;34.84;25.58
14383;BME280;7275;50.328;8.720;2022-09-02T09:04:15;99748.06;;;35.49;25.20
14383;BME280;7275;50.328;8.720;2022-09-02T09:06:55;99748.34;;;35.92;24.32
14383;BME280;7275;50.328;8.720;2022-09-02T09:09:31;99745.03;;;36.21;23.92
14383;BME280;7275;50.328;8.720;2022-09-02T09:12:09;99747.50;;;36.67;23.96
14383;BME280;7275;50.328;8.720;2022-09-02T09:14:45;99747.44;;;37.23;23.83
14383;BME280;7275;50.328;8.720;2022-09-02T09:17:23;99743.56;;;37.67;22.90
14383;BME280;7275;50.328;8.720;2022-09-02T09:19:54;99732.22;;;37.93;22.23
14383;BME280;7275;50.328;8.720;2022-09-02T09:22:28;99737.47;;;38.12;22.17
14383;BME280;7275;50.328;8.720;2022-09-02T09:24:58;99731.34;;;38.10;21.60
14383;BME280;7275;50.328;8.720;2022-09-02T09:27:26;99725.47;;;38.18;21.31
14383;BME280;7275;50.328;8.720;2022-09-02T09:29:53;99728.78;;;38.27;21.23
14383;BME280;7275;50.328;8.720;2022-09-02T09:32:26;99727.81;;;38.51;21.16
14383;BME280;7275;50.328;8.720;2022-09-02T09:34:57;99731.13;;;38.94;20.97
14383;BME280;7275;50.328;8.720;2022-09-02T09:37:29;99730.69;;;39.32;20.39
14383;BME280;7275;50.328;8.720;2022-09-02T09:40:28;99724.03;;;39.45;20.74
14383;BME280;7275;50.328;8.720;2022-09-02T09:43:10;99709.81;;;39.64;19.67
14383;BME280;7275;50.328;8.720;2022-09-02T09:45:42;99713.75;;;39.80;19.57
14383;BME280;7275;50.328;8.720;2022-09-02T09:48:17;99697.59;;;39.88;19.34
14383;BME280;7275;50.328;8.720;2022-09-02T09:50:47;99703.59;;;39.85;18.81
14383;BME280;7275;50.328;8.720;2022-09-02T09:53:17;99700.56;;;39.87;18.81
14383;BME280;7275;50.328;8.720;2022-09-02T09:55:51;99697.00;;;39.24;19.07
14383;BME280;7275;50.328;8.720;2022-09-02T09:58:20;99702.69;;;38.23;19.48
14383;BME280;7275;50.328;8.720;2022-09-02T10:00:50;99699.50;;;37.42;20.02
14383;BME280;7275;50.328;8.720;2022-09-02T10:03:28;99694.22;;;36.73;20.40
14383;BME280;7275;50.328;8.720;2022-09-02T10:06:16;99687.16;;;35.96;20.43
14383;BME280;7275;50.328;8.720;2022-09-02T10:08:51;99699.59;;;35.42;20.62
14383;BME280;7275;50.328;8.720;2022-09-02T10:11:21;99696.72;;;34.84;20.80
14383;BME280;7275;50.328;8.720;2022-09-02T10:13:49;99699.25;;;34.46;21.22
14383;BME280;7275;50.328;8.720;2022-09-02T10:16:31;99702.63;;;34.35;20.90
14383;BME280;7275;50.328;8.720;2022-09-02T10:19:10;99697.53;;;34.13;20.35
14383;BME280;7275;50.328;8.720;2022-09-02T10:22:02;99692.75;;;33.74;21.06
14383;BME280;7275;50.328;8.720;2022-09-02T10:24:47;99687.00;;;34.42;21.12
14383;BME280;7275;50.328;8.720;2022-09-02T10:27:25;99687.13;;;35.52;20.72
14383;BME280;7275;50.328;8.720;2022-09-02T10:29:58;99689.09;;;36.21;20.08
14383;BME280;7275;50.328;8.720;2022-09-02T10:32:44;99677.09;;;36.46;20.08
14383;BME280;7275;50.328;8.720;2022-09-02T10:35:24;99692.34;;;37.34;19.72
14383;BME280;7275;50.328;8.720;2022-09-02T10:38:05;99671.91;;;37.24;18.46
14383;BME280;7275;50.328;8.720;2022-09-02T10:40:38;99669.25;;;36.68;18.78
14383;BME280;7275;50.328;8.720;2022-09-02T10:43:09;99676.53;;;36.00;18.92
14383;BME280;7275;50.328;8.720;2022-09-02T10:45:44;99670.88;;;35.31;19.13
14383;BME280;7275;50.328;8.720;2022-09-02T10:48:27;99679.00;;;34.67;19.94
14383;BME280;7275;50.328;8.720;2022-09-02T10:51:02;99675.16;;;34.16;19.87
14383;BME280;7275;50.328;8.720;2022-09-02T10:53:40;99663.63;;;33.73;20.16
14383;BME280;7275;50.328;8.720;2022-09-02T10:56:13;99661.81;;;33.46;20.31
14383;BME280;7275;50.328;8.720;2022-09-02T10:58:45;99662.00;;;33.38;20.74
14383;BME280;7275;50.328;8.720;2022-09-02T11:01:19;99657.38;;;33.45;20.47
14383;BME280;7275;50.328;8.720;2022-09-02T11:03:59;99649.63;;;33.55;20.64
14383;BME280;7275;50.328;8.720;2022-09-02T11:06:31;99647.16;;;33.66;20.67
14383;BME280;7275;50.328;8.720;2022-09-02T11:09:28;99650.53;;;33.68;20.17
14383;BME280;7275;50.328;8.720;2022-09-02T11:11:58;99642.09;;;33.70;20.32
14383;BME280;7275;50.328;8.720;2022-09-02T11:14:32;99641.88;;;33.78;20.82
14383;BME280;7275;50.328;8.720;2022-09-02T11:17:04;99650.16;;;33.91;21.04
14383;BME280;7275;50.328;8.720;2022-09-02T11:19:41;99640.72;;;34.00;19.97
14383;BME280;7275;50.328;8.720;2022-09-02T11:22:18;99627.41;;;34.04;20.55
14383;BME280;7275;50.328;8.720;2022-09-02T11:24:57;99637.34;;;34.11;20.22
14383;BME280;7275;50.328;8.720;2022-09-02T11:27:31;99630.38;;;34.15;20.08
14383;BME280;7275;50.328;8.720;2022-09-02T11:30:12;99631.84;;;34.18;20.06
14383;BME280;7275;50.328;8.720;2022-09-02T11:32:42;99626.59;;;34.23;20.33
14383;BME280;7275;50.328;8.720;2022-09-02T11:35:15;99628.91;;;34.19;19.68
14383;BME280;7275;50.328;8.720;2022-09-02T11:37:46;99627.41;;;34.04;19.72
14383;BME280;7275;50.328;8.720;2022-09-02T11:40:22;99626.53;;;33.83;20.20
14383;BME280;7275;50.328;8.720;2022-09-02T11:43:19;99627.25;;;33.51;19.86
14383;BME280;7275;50.328;8.720;2022-09-02T11:46:00;99619.31;;;33.22;20.03
14383;BME280;7275;50.328;8.720;2022-09-02T11:48:54;99620.53;;;33.07;20.05
14383;BME280;7275;50.328;8.720;2022-09-02T11:51:49;99615.69;;;33.09;20.42
14383;BME280;7275;50.328;8.720;2022-09-02T11:54:22;99608.50;;;33.08;20.24
14383;BME280;7275;50.328;8.720;2022-09-02T11:56:56;99607.06;;;33.18;20.03
14383;BME280;7275;50.328;8.720;2022-09-02T12:02:32;99599.72;;;33.32;19.85
14383;BME280;7275;50.328;8.720;2022-09-02T12:05:47;99587.13;;;33.37;20.33
14383;BME280;7275;50.328;8.720;2022-09-02T12:11:51;99588.91;;;33.77;19.97
14383;BME280;7275;50.328;8.720;2022-09-02T12:15:00;99583.91;;;34.01;19.61
14383;BME280;7275;50.328;8.720;2022-09-02T12:17:43;99587.09;;;34.24;19.36
14383;BME280;7275;50.328;8.720;2022-09-02T12:24:07;99566.56;;;34.72;19.64
14383;BME280;7275;50.328;8.720;2022-09-02T12:27:06;99572.84;;;34.99;19.03
14383;BME280;7275;50.328;8.720;2022-09-02T12:29:34;99571.56;;;35.01;18.76
14383;BME280;7275;50.328;8.720;2022-09-02T12:32:05;99567.78;;;35.02;18.70
14383;BME280;7275;50.328;8.720;2022-09-02T12:34:54;99561.84;;;34.99;18.77
14383;BME280;7275;50.328;8.720;2022-09-02T12:37:49;99560.81;;;35.00;18.13
14383;BME280;7275;50.328;8.720;2022-09-02T12:40:25;99579.81;;;34.95;18.54
14383;BME280;7275;50.328;8.720;2022-09-02T12:43:04;99572.66;;;34.87;18.39
14383;BME280;7275;50.328;8.720;2022-09-02T12:45:33;99566.97;;;34.76;18.36
14383;BME280;7275;50.328;8.720;2022-09-02T12:48:11;99572.94;;;34.53;17.97
14383;BME280;7275;50.328;8.720;2022-09-02T12:50:53;99574.22;;;34.24;18.08
14383;BME280;7275;50.328;8.720;2022-09-02T12:53:27;99565.78;;;34.06;18.40
14383;BME280;7275;50.328;8.720;2022-09-02T12:55:58;99568.94;;;34.03;18.70
14383;BME280;7275;50.328;8.720;2022-09-02T12:58:33;99563.66;;;34.08;18.62
14383;BME280;7275;50.328;8.720;2022-09-02T13:01:11;99551.41;;;34.17;18.33
14383;BME280;7275;50.328;8.720;2022-09-02T13:07:19;99545.03;;;34.69;18.73
14383;BME280;7275;50.328;8.720;2022-09-02T13:10:10;99546.19;;;34.93;18.18
14383;BME280;7275;50.328;8.720;2022-09-02T13:13:18;99541.09;;;35.09;18.31
14383;BME280;7275;50.328;8.720;2022-09-02T13:16:09;99534.16;;;35.07;18.50
14383;BME280;7275;50.328;8.720;2022-09-02T13:19:17;99537.50;;;35.09;18.40
14383;BME280;7275;50.328;8.720;2022-09-02T13:22:04;99530.69;;;35.18;18.00
14383;BME280;7275;50.328;8.720;2022-09-02T13:24:52;99540.59;;;35.25;18.20
14383;BME280;7275;50.328;8.720;2022-09-02T13:27:48;99531.09;;;35.21;18.05
14383;BME280;7275;50.328;8.720;2022-09-02T13:30:22;99525.19;;;35.18;17.62
14383;BME280;7275;50.328;8.720;2022-09-02T13:33:01;99523.31;;;35.12;17.58
14383;BME280;7275;50.328;8.720;2022-09-02T13:35:36;99520.78;;;35.10;17.52
14383;BME280;7275;50.328;8.720;2022-09-02T13:38:03;99518.94;;;35.04;17.86
14383;BME280;7275;50.328;8.720;2022-09-02T13:40:32;99522.09;;;35.01;17.49
14383;BME280;7275;50.328;8.720;2022-09-02T13:43:02;99518.06;;;35.04;17.91
14383;BME280;7275;50.328;8.720;2022-09-02T13:45:32;99511.50;;;35.05;17.71
14383;BME280;7275;50.328;8.720;2022-09-02T13:48:06;99506.59;;;35.13;17.54
14383;BME280;7275;50.328;8.720;2022-09-02T13:50:35;99499.34;;;35.25;17.81